sensor_id;sensor_type;location;lat;lon;timestamp;temperature;humidity
19813;DHT22;10066;48.108;11.448;2022-08-05T00:02:19;20.80;99.90
19813;DHT22;10066;48.108;11.448;2022-08-05T00:04:46;20.70;99.90
19813;DHT22;10066;48.108;11.448;2022-08-05T00:07:14;20.70;99.90
19813;DHT22;10066;48.108;11.448;2022-08-05T00:09:41;20.70;99.90
19813;DHT22;10066;48.108;11.448;2022-08-05T00:12:08;20.70;99.90
19813;DHT22;10066;48.108;11.448;2022-08-05T00:14:35;20.60;99.90
19813;DHT22;10066;48.108;11.448;2022-08-05T00:17:02;20.60;99.90
19813;DHT22;10066;48.108;11.448;2022-08-05T00:19:30;20.50;99.90
19813;DHT22;10066;48.108;11.448;2022-08-05T00:21:57;20.50;99.90
19813;DHT22;10066;48.108;11.448;2022-08-05T00:24:24;20.50;99.90
19813;DHT22;10066;48.108;11.448;2022-08-05T00:26:51;20.40;99.90
19813;DHT22;10066;48.108;11.448;2022-08-05T00:29:19;20.40;99.90
19813;DHT22;10066;48.108;11.448;2022-08-05T00:31:46;20.40;99.90
19813;DHT22;10066;48.108;11.448;2022-08-05T00:34:14;20.40;99.90
19813;DHT22;10066;48.108;11.448;2022-08-05T00:36:42;20.40;99.90
19813;DHT22;10066;48.108;11.448;2022-08-05T00:39:09;20.40;99.90
19813;DHT22;10066;48.108;11.448;2022-08-05T00:41:37;20.40;99.90
19813;DHT22;10066;48.108;11.448;2022-08-05T00:44:04;20.30;99.90
19813;DHT22;10066;48.108;11.448;2022-08-05T00:46:31;20.30;99.90
19813;DHT22;10066;48.108;11.448;2022-08-05T00:48:58;20.30;99.90
19813;DHT22;10066;48.108;11.448;2022-08-05T00:51:25;20.30;99.90
19813;DHT22;10066;48.108;11.448;2022-08-05T00:53:54;20.20;99.90
19813;DHT22;10066;48.108;11.448;2022-08-05T00:56:21;20.20;99.90
19813;DHT22;10066;48.108;11.448;2022-08-05T00:58:48;20.20;99.90
19813;DHT22;10066;48.108;11.448;2022-08-05T01:01:15;20.20;99.90
19813;DHT22;10066;48.108;11.448;2022-08-05T01:03:42;20.20;99.90
19813;DHT22;10066;48.108;11.448;2022-08-05T01:06:09;20.10;99.90
19813;DHT22;10066;48.108;11.448;2022-08-05T01:08:36;20.10;99.90
19813;DHT22;10066;48.108;11.448;2022-08-05T01:11:08;20.10;99.90
19813;DHT22;10066;48.108;11.448;2022-08-05T01:13:43;20.10;99.90
19813;DHT22;10066;48.108;11.448;2022-08-05T01:16:16;20.00;99.90
19813;DHT22;10066;48.108;11.448;2022-08-05T01:18:46;20.00;99.90
19813;DHT22;10066;48.108;11.448;2022-08-05T01:21:22;20.00;99.90
19813;DHT22;10066;48.108;11.448;2022-08-05T01:24:05;20.00;99.90
19813;DHT22;10066;48.108;11.448;2022-08-05T01:26:49;19.90;99.90
19813;DHT22;10066;48.108;11.448;2022-08-05T01:29:29;19.90;99.90
19813;DHT22;10066;48.108;11.448;2022-08-05T01:32:01;19.90;99.90
19813;DHT22;10066;48.108;11.448;2022-08-05T01:34:32;19.90;99.90
19813;DHT22;10066;48.108;11.448;2022-08-05T01:37:04;19.90;99.90
19813;DHT22;10066;48.108;11.448;2022-08-05T01:39:33;19.90;99.90
19813;DHT22;10066;48.108;11.448;2022-08-05T01:42:02;19.90;99.90
19813;DHT22;10066;48.108;11.448;2022-08-05T01:44:33;19.90;99.90
19813;DHT22;10066;48.108;11.448;2022-08-05T01:47:01;19.90;99.90
19813;DHT22;10066;48.108;11.448;2022-08-05T01:49:30;19.90;99.90
19813;DHT22;10066;48.108;11.448;2022-08-05T01:52:00;20.00;99.90
19813;DHT22;10066;48.108;11.448;2022-08-05T01:54:31;20.00;99.90
19813;DHT22;10066;48.108;11.448;2022-08-05T01:56:59;20.00;99.90
19813;DHT22;10066;48.108;11.448;2022-08-05T01:59:27;20.10;99.90
19813;DHT22;10066;48.108;11.448;2022-08-05T02:04:34;20.10;99.90
19813;DHT22;10066;48.108;11.448;2022-08-05T02:07:04;20.10;99.90
19813;DHT22;10066;48.108;11.448;2022-08-05T02:09:30;20.20;99.90
19813;DHT22;10066;48.108;11.448;2022-08-05T02:12:02;20.20;99.90
19813;DHT22;10066;48.108;11.448;2022-08-05T02:14:33;20.20;99.90
19813;DHT22;10066;48.108;11.448;2022-08-05T02:17:06;20.20;99.90
19813;DHT22;10066;48.108;11.448;2022-08-05T02:19:43;20.20;99.90
19813;DHT22;10066;48.108;11.448;2022-08-05T02:22:16;20.20;99.90
19813;DHT22;10066;48.108;11.448;2022-08-05T02:24:46;20.20;99.90
19813;DHT22;10066;48.108;11.448;2022-08-05T02:27:17;20.30;99.90
19813;DHT22;10066;48.108;11.448;2022-08-05T02:29:46;20.30;99.90
19813;DHT22;10066;48.108;11.448;2022-08-05T02:32:16;20.20;99.90
19813;DHT22;10066;48.108;11.448;2022-08-05T02:34:45;20.20;99.90
19813;DHT22;10066;48.108;11.448;2022-08-05T02:37:13;20.20;99.90
19813;DHT22;10066;48.108;11.448;2022-08-05T02:39:41;20.20;99.90
19813;DHT22;10066;48.108;11.448;2022-08-05T02:42:08;20.20;99.90
19813;DHT22;10066;48.108;11.448;2022-08-05T02:44:37;20.20;99.90
19813;DHT22;10066;48.108;11.448;2022-08-05T02:47:07;20.30;99.90
19813;DHT22;10066;48.108;11.448;2022-08-05T02:49:36;20.20;99.90
19813;DHT22;10066;48.108;11.448;2022-08-05T02:52:08;20.20;99.90
19813;DHT22;10066;48.108;11.448;2022-08-05T02:54:36;20.20;99.90
19813;DHT22;10066;48.108;11.448;2022-08-05T02:57:06;20.20;99.90
19813;DHT22;10066;48.108;11.448;2022-08-05T02:59:34;20.20;99.90
19813;DHT22;10066;48.108;11.448;2022-08-05T03:02:02;20.20;99.90
19813;DHT22;10066;48.108;11.448;2022-08-05T03:04:31;20.20;99.90
19813;DHT22;10066;48.108;11.448;2022-08-05T03:06:58;20.20;99.90
19813;DHT22;10066;48.108;11.448;2022-08-05T03:09:27;20.10;99.90
19813;DHT22;10066;48.108;11.448;2022-08-05T03:11:54;20.10;99.90
19813;DHT22;10066;48.108;11.448;2022-08-05T03:14:21;20.10;99.90
19813;DHT22;10066;48.108;11.448;2022-08-05T03:16:48;20.10;99.90
19813;DHT22;10066;48.108;11.448;2022-08-05T03:19:15;20.00;99.90
19813;DHT22;10066;48.108;11.448;2022-08-05T03:21:42;20.00;99.90
19813;DHT22;10066;48.108;11.448;2022-08-05T03:24:10;19.90;99.90
19813;DHT22;10066;48.108;11.448;2022-08-05T03:26:39;20.00;99.90
19813;DHT22;10066;48.108;11.448;2022-08-05T03:29:06;19.90;99.90
19813;DHT22;10066;48.108;11.448;2022-08-05T03:31:32;19.80;99.90
19813;DHT22;10066;48.108;11.448;2022-08-05T03:34:00;19.80;99.90
19813;DHT22;10066;48.108;11.448;2022-08-05T03:36:27;19.70;99.90
19813;DHT22;10066;48.108;11.448;2022-08-05T03:38:53;19.70;99.90
19813;DHT22;10066;48.108;11.448;2022-08-05T03:41:20;19.70;99.90
19813;DHT22;10066;48.108;11.448;2022-08-05T03:43:49;19.60;99.90
19813;DHT22;10066;48.108;11.448;2022-08-05T03:46:16;19.60;99.90
19813;DHT22;10066;48.108;11.448;2022-08-05T03:48:43;19.60;99.90
19813;DHT22;10066;48.108;11.448;2022-08-05T03:51:12;19.60;99.90
19813;DHT22;10066;48.108;11.448;2022-08-05T03:53:48;19.50;99.90
19813;DHT22;10066;48.108;11.448;2022-08-05T03:56:21;19.50;99.90
19813;DHT22;10066;48.108;11.448;2022-08-05T03:58:54;19.50;99.90
19813;DHT22;10066;48.108;11.448;2022-08-05T04:01:23;19.50;99.90
19813;DHT22;10066;48.108;11.448;2022-08-05T04:03:51;19.40;99.90
19813;DHT22;10066;48.108;11.448;2022-08-05T04:06:19;19.40;99.90
19813;DHT22;10066;48.108;11.448;2022-08-05T04:08:46;19.40;99.90
19813;DHT22;10066;48.108;11.448;2022-08-05T04:11:14;19.40;99.90
19813;DHT22;10066;48.108;11.448;2022-08-05T04:13:41;19.40;99.90
19813;DHT22;10066;48.108;11.448;2022-08-05T04:16:12;19.40;99.90
19813;DHT22;10066;48.108;11.448;2022-08-05T04:18:39;19.30;99.90
19813;DHT22;10066;48.108;11.448;2022-08-05T04:21:06;19.30;99.90
19813;DHT22;10066;48.108;11.448;2022-08-05T04:23:34;19.30;99.90
19813;DHT22;10066;48.108;11.448;2022-08-05T04:26:02;19.30;99.90
19813;DHT22;10066;48.108;11.448;2022-08-05T04:28:30;19.30;99.90
19813;DHT22;10066;48.108;11.448;2022-08-05T04:30:59;19.30;99.90
19813;DHT22;10066;48.108;11.448;2022-08-05T04:33:28;19.30;99.90
19813;DHT22;10066;48.108;11.448;2022-08-05T04:35:55;19.30;99.90
19813;DHT22;10066;48.108;11.448;2022-08-05T04:38:22;19.30;99.90
19813;DHT22;10066;48.108;11.448;2022-08-05T04:40:49;19.40;99.90
19813;DHT22;10066;48.108;11.448;2022-08-05T04:43:16;19.40;99.90
19813;DHT22;10066;48.108;11.448;2022-08-05T04:45:43;19.40;99.90
19813;DHT22;10066;48.108;11.448;2022-08-05T04:48:11;19.50;99.90
19813;DHT22;10066;48.108;11.448;2022-08-05T04:50:40;19.70;99.90
19813;DHT22;10066;48.108;11.448;2022-08-05T04:53:08;19.80;99.90
19813;DHT22;10066;48.108;11.448;2022-08-05T04:55:37;20.00;99.90
19813;DHT22;10066;48.108;11.448;2022-08-05T04:58:05;20.10;99.90
19813;DHT22;10066;48.108;11.448;2022-08-05T05:00:33;20.30;99.90
19813;DHT22;10066;48.108;11.448;2022-08-05T05:03:00;20.50;99.90
19813;DHT22;10066;48.108;11.448;2022-08-05T05:05:27;20.70;99.90
19813;DHT22;10066;48.108;11.448;2022-08-05T05:07:59;20.90;99.90
19813;DHT22;10066;48.108;11.448;2022-08-05T05:10:27;21.10;99.90
19813;DHT22;10066;48.108;11.448;2022-08-05T05:12:53;21.30;99.90
19813;DHT22;10066;48.108;11.448;2022-08-05T05:15:21;21.50;99.90
19813;DHT22;10066;48.108;11.448;2022-08-05T05:17:48;21.60;99.90
19813;DHT22;10066;48.108;11.448;2022-08-05T05:20:15;21.80;99.90
19813;DHT22;10066;48.108;11.448;2022-08-05T05:22:42;22.00;99.90
19813;DHT22;10066;48.108;11.448;2022-08-05T05:25:10;22.20;99.90
19813;DHT22;10066;48.108;11.448;2022-08-05T05:27:39;22.40;99.90
19813;DHT22;10066;48.108;11.448;2022-08-05T05:30:07;22.60;99.90
19813;DHT22;10066;48.108;11.448;2022-08-05T05:32:34;22.80;99.90
19813;DHT22;10066;48.108;11.448;2022-08-05T05:35:00;23.00;99.90
19813;DHT22;10066;48.108;11.448;2022-08-05T05:37:27;23.20;99.90
19813;DHT22;10066;48.108;11.448;2022-08-05T05:39:54;23.40;99.90
19813;DHT22;10066;48.108;11.448;2022-08-05T05:42:23;23.60;99.90
19813;DHT22;10066;48.108;11.448;2022-08-05T05:44:50;23.70;99.90
19813;DHT22;10066;48.108;11.448;2022-08-05T05:47:17;23.90;99.90
19813;DHT22;10066;48.108;11.448;2022-08-05T05:49:44;24.00;99.90
19813;DHT22;10066;48.108;11.448;2022-08-05T05:52:11;24.10;99.90
19813;DHT22;10066;48.108;11.448;2022-08-05T05:54:38;24.30;99.90
19813;DHT22;10066;48.108;11.448;2022-08-05T05:57:05;24.50;99.90
19813;DHT22;10066;48.108;11.448;2022-08-05T05:59:33;24.60;99.90
19813;DHT22;10066;48.108;11.448;2022-08-05T06:02:00;24.90;99.90
19813;DHT22;10066;48.108;11.448;2022-08-05T06:04:27;25.10;99.90
19813;DHT22;10066;48.108;11.448;2022-08-05T06:06:54;25.50;99.90
19813;DHT22;10066;48.108;11.448;2022-08-05T06:09:21;25.80;99.90
19813;DHT22;10066;48.108;11.448;2022-08-05T06:11:48;27.30;99.90
19813;DHT22;10066;48.108;11.448;2022-08-05T06:14:15;27.70;99.90
19813;DHT22;10066;48.108;11.448;2022-08-05T06:16:43;28.40;99.90
19813;DHT22;10066;48.108;11.448;2022-08-05T06:19:10;28.70;99.00
19813;DHT22;10066;48.108;11.448;2022-08-05T06:21:37;28.40;98.50
19813;DHT22;10066;48.108;11.448;2022-08-05T06:24:05;28.20;98.00
19813;DHT22;10066;48.108;11.448;2022-08-05T06:26:32;27.90;97.90
19813;DHT22;10066;48.108;11.448;2022-08-05T06:28:59;27.80;97.70
19813;DHT22;10066;48.108;11.448;2022-08-05T06:31:26;28.70;96.20
19813;DHT22;10066;48.108;11.448;2022-08-05T06:33:55;29.70;93.90
19813;DHT22;10066;48.108;11.448;2022-08-05T06:36:22;30.70;92.10
19813;DHT22;10066;48.108;11.448;2022-08-05T06:38:49;31.40;90.20
19813;DHT22;10066;48.108;11.448;2022-08-05T06:41:18;32.00;86.20
19813;DHT22;10066;48.108;11.448;2022-08-05T06:43:45;32.50;82.10
19813;DHT22;10066;48.108;11.448;2022-08-05T06:46:12;32.70;79.50
19813;DHT22;10066;48.108;11.448;2022-08-05T06:48:39;32.60;77.40
19813;DHT22;10066;48.108;11.448;2022-08-05T06:51:08;32.40;76.50
19813;DHT22;10066;48.108;11.448;2022-08-05T06:56:03;30.80;79.10
19813;DHT22;10066;48.108;11.448;2022-08-05T06:58:30;30.10;80.50
19813;DHT22;10066;48.108;11.448;2022-08-05T07:00:59;29.70;82.00
19813;DHT22;10066;48.108;11.448;2022-08-05T07:03:26;29.40;82.30
19813;DHT22;10066;48.108;11.448;2022-08-05T07:05:54;29.20;82.70
19813;DHT22;10066;48.108;11.448;2022-08-05T07:08:23;29.10;83.70
19813;DHT22;10066;48.108;11.448;2022-08-05T07:10:50;29.00;84.00
19813;DHT22;10066;48.108;11.448;2022-08-05T07:13:18;28.90;83.90
19813;DHT22;10066;48.108;11.448;2022-08-05T07:16:03;28.80;84.30
19813;DHT22;10066;48.108;11.448;2022-08-05T07:18:56;28.80;84.60
19813;DHT22;10066;48.108;11.448;2022-08-05T07:21:23;28.80;84.70
19813;DHT22;10066;48.108;11.448;2022-08-05T07:23:51;28.70;85.00
19813;DHT22;10066;48.108;11.448;2022-08-05T07:26:18;28.60;85.30
19813;DHT22;10066;48.108;11.448;2022-08-05T07:28:45;28.60;85.20
19813;DHT22;10066;48.108;11.448;2022-08-05T07:31:12;28.50;84.80
19813;DHT22;10066;48.108;11.448;2022-08-05T07:33:39;28.40;85.20
19813;DHT22;10066;48.108;11.448;2022-08-05T07:36:07;28.40;85.30
19813;DHT22;10066;48.108;11.448;2022-08-05T07:38:35;28.30;85.80
19813;DHT22;10066;48.108;11.448;2022-08-05T07:41:06;28.20;85.90
19813;DHT22;10066;48.108;11.448;2022-08-05T07:43:33;28.10;85.50
19813;DHT22;10066;48.108;11.448;2022-08-05T07:46:00;28.00;86.10
19813;DHT22;10066;48.108;11.448;2022-08-05T07:48:27;27.90;86.30
19813;DHT22;10066;48.108;11.448;2022-08-05T07:50:54;27.80;86.80
19813;DHT22;10066;48.108;11.448;2022-08-05T07:53:21;27.90;87.40
19813;DHT22;10066;48.108;11.448;2022-08-05T07:55:48;27.90;87.80
19813;DHT22;10066;48.108;11.448;2022-08-05T07:58:17;27.90;87.80
19813;DHT22;10066;48.108;11.448;2022-08-05T08:00:44;28.00;88.70
19813;DHT22;10066;48.108;11.448;2022-08-05T08:03:11;28.10;89.20
19813;DHT22;10066;48.108;11.448;2022-08-05T08:05:39;28.20;89.10
19813;DHT22;10066;48.108;11.448;2022-08-05T08:08:07;28.30;89.10
19813;DHT22;10066;48.108;11.448;2022-08-05T08:10:34;28.40;88.70
19813;DHT22;10066;48.108;11.448;2022-08-05T08:13:01;28.50;88.00
19813;DHT22;10066;48.108;11.448;2022-08-05T08:15:30;28.50;88.00
19813;DHT22;10066;48.108;11.448;2022-08-05T08:17:57;28.50;86.50
19813;DHT22;10066;48.108;11.448;2022-08-05T08:20:25;28.40;85.40
19813;DHT22;10066;48.108;11.448;2022-08-05T08:22:52;28.30;85.30
19813;DHT22;10066;48.108;11.448;2022-08-05T08:25:20;28.30;85.00
19813;DHT22;10066;48.108;11.448;2022-08-05T08:27:47;28.20;85.30
19813;DHT22;10066;48.108;11.448;2022-08-05T08:30:14;28.20;84.60
19813;DHT22;10066;48.108;11.448;2022-08-05T08:32:42;28.20;84.00
19813;DHT22;10066;48.108;11.448;2022-08-05T08:35:09;28.20;84.00
19813;DHT22;10066;48.108;11.448;2022-08-05T08:37:37;28.10;83.00
19813;DHT22;10066;48.108;11.448;2022-08-05T08:40:04;28.10;83.00
19813;DHT22;10066;48.108;11.448;2022-08-05T08:42:32;28.10;82.70
19813;DHT22;10066;48.108;11.448;2022-08-05T08:44:59;28.10;82.70
19813;DHT22;10066;48.108;11.448;2022-08-05T08:47:27;28.00;82.90
19813;DHT22;10066;48.108;11.448;2022-08-05T08:49:56;27.90;82.20
19813;DHT22;10066;48.108;11.448;2022-08-05T08:52:28;27.80;82.80
19813;DHT22;10066;48.108;11.448;2022-08-05T08:54:56;27.70;83.40
19813;DHT22;10066;48.108;11.448;2022-08-05T08:57:23;27.60;83.80
19813;DHT22;10066;48.108;11.448;2022-08-05T08:59:51;27.50;84.40
19813;DHT22;10066;48.108;11.448;2022-08-05T09:02:20;27.50;84.40
19813;DHT22;10066;48.108;11.448;2022-08-05T09:04:47;27.50;84.70
19813;DHT22;10066;48.108;11.448;2022-08-05T09:07:15;27.50;85.00
19813;DHT22;10066;48.108;11.448;2022-08-05T09:09:42;27.60;85.00
19813;DHT22;10066;48.108;11.448;2022-08-05T09:12:10;27.60;84.50
19813;DHT22;10066;48.108;11.448;2022-08-05T09:14:37;27.60;85.00
19813;DHT22;10066;48.108;11.448;2022-08-05T09:17:06;27.70;84.50
19813;DHT22;10066;48.108;11.448;2022-08-05T09:19:34;27.50;83.70
19813;DHT22;10066;48.108;11.448;2022-08-05T09:22:01;27.50;84.60
19813;DHT22;10066;48.108;11.448;2022-08-05T09:24:30;27.60;84.50
19813;DHT22;10066;48.108;11.448;2022-08-05T09:26:57;27.70;84.40
19813;DHT22;10066;48.108;11.448;2022-08-05T09:29:38;27.70;83.70
19813;DHT22;10066;48.108;11.448;2022-08-05T09:32:08;27.80;83.80
19813;DHT22;10066;48.108;11.448;2022-08-05T09:34:46;27.70;83.30
19813;DHT22;10066;48.108;11.448;2022-08-05T09:37:17;27.80;84.00
19813;DHT22;10066;48.108;11.448;2022-08-05T09:39:46;27.80;84.10
19813;DHT22;10066;48.108;11.448;2022-08-05T09:42:14;27.90;83.80
19813;DHT22;10066;48.108;11.448;2022-08-05T09:44:43;28.00;83.60
19813;DHT22;10066;48.108;11.448;2022-08-05T09:47:13;28.10;82.50
19813;DHT22;10066;48.108;11.448;2022-08-05T09:49:41;28.00;81.80
19813;DHT22;10066;48.108;11.448;2022-08-05T09:52:17;28.00;81.50
19813;DHT22;10066;48.108;11.448;2022-08-05T09:54:53;27.90;81.00
19813;DHT22;10066;48.108;11.448;2022-08-05T09:57:44;27.80;82.10
19813;DHT22;10066;48.108;11.448;2022-08-05T10:00:14;27.80;80.80
19813;DHT22;10066;48.108;11.448;2022-08-05T10:02:43;28.00;81.20
19813;DHT22;10066;48.108;11.448;2022-08-05T10:05:12;28.20;81.70
19813;DHT22;10066;48.108;11.448;2022-08-05T10:07:44;28.40;81.10
19813;DHT22;10066;48.108;11.448;2022-08-05T10:10:13;28.60;80.80
19813;DHT22;10066;48.108;11.448;2022-08-05T10:12:42;28.80;80.60
19813;DHT22;10066;48.108;11.448;2022-08-05T10:15:13;28.90;79.00
19813;DHT22;10066;48.108;11.448;2022-08-05T10:17:40;28.90;78.50
19813;DHT22;10066;48.108;11.448;2022-08-05T10:20:08;29.00;78.80
19813;DHT22;10066;48.108;11.448;2022-08-05T10:22:38;29.00;78.40
19813;DHT22;10066;48.108;11.448;2022-08-05T10:25:06;29.20;79.80
19813;DHT22;10066;48.108;11.448;2022-08-05T10:27:36;29.30;78.50
19813;DHT22;10066;48.108;11.448;2022-08-05T10:30:05;29.20;76.70
19813;DHT22;10066;48.108;11.448;2022-08-05T10:32:32;29.20;76.70
19813;DHT22;10066;48.108;11.448;2022-08-05T10:35:00;29.20;76.40
19813;DHT22;10066;48.108;11.448;2022-08-05T10:37:28;29.10;75.50
19813;DHT22;10066;48.108;11.448;2022-08-05T10:39:57;29.00;75.40
19813;DHT22;10066;48.108;11.448;2022-08-05T10:42:31;29.10;75.00
19813;DHT22;10066;48.108;11.448;2022-08-05T10:45:03;29.10;74.50
19813;DHT22;10066;48.108;11.448;2022-08-05T10:47:32;29.00;73.90
19813;DHT22;10066;48.108;11.448;2022-08-05T10:50:04;29.00;73.70
19813;DHT22;10066;48.108;11.448;2022-08-05T10:52:40;29.00;73.90
19813;DHT22;10066;48.108;11.448;2022-08-05T10:55:09;29.10;74.20
19813;DHT22;10066;48.108;11.448;2022-08-05T10:57:38;29.20;74.20
19813;DHT22;10066;48.108;11.448;2022-08-05T11:00:12;29.30;74.40
19813;DHT22;10066;48.108;11.448;2022-08-05T11:05:38;29.60;74.60
19813;DHT22;10066;48.108;11.448;2022-08-05T11:08:06;29.60;74.60
19813;DHT22;10066;48.108;11.448;2022-08-05T11:10:35;29.70;74.20
19813;DHT22;10066;48.108;11.448;2022-08-05T11:13:03;29.70;74.70
19813;DHT22;10066;48.108;11.448;2022-08-05T11:15:34;29.70;74.40
19813;DHT22;10066;48.108;11.448;2022-08-05T11:18:11;29.60;73.00
19813;DHT22;10066;48.108;11.448;2022-08-05T11:20:48;29.60;73.80
19813;DHT22;10066;48.108;11.448;2022-08-05T11:23:27;29.60;73.90
19813;DHT22;10066;48.108;11.448;2022-08-05T11:26:03;29.60;73.60
19813;DHT22;10066;48.108;11.448;2022-08-05T11:28:46;29.60;73.10
19813;DHT22;10066;48.108;11.448;2022-08-05T11:31:26;29.60;72.10
19813;DHT22;10066;48.108;11.448;2022-08-05T11:33:58;29.60;72.00
19813;DHT22;10066;48.108;11.448;2022-08-05T11:36:45;29.60;71.80
19813;DHT22;10066;48.108;11.448;2022-08-05T11:39:14;29.60;72.60
19813;DHT22;10066;48.108;11.448;2022-08-05T11:41:42;29.60;72.70
19813;DHT22;10066;48.108;11.448;2022-08-05T11:44:16;29.70;71.90
19813;DHT22;10066;48.108;11.448;2022-08-05T11:46:48;29.60;70.70
19813;DHT22;10066;48.108;11.448;2022-08-05T11:49:17;29.60;71.00
19813;DHT22;10066;48.108;11.448;2022-08-05T11:51:45;29.40;70.90
19813;DHT22;10066;48.108;11.448;2022-08-05T11:54:14;29.40;71.70
19813;DHT22;10066;48.108;11.448;2022-08-05T11:56:48;29.50;71.40
19813;DHT22;10066;48.108;11.448;2022-08-05T11:59:17;29.50;70.60
19813;DHT22;10066;48.108;11.448;2022-08-05T12:01:54;29.60;70.60
19813;DHT22;10066;48.108;11.448;2022-08-05T12:04:21;29.60;70.60
19813;DHT22;10066;48.108;11.448;2022-08-05T12:06:48;29.70;71.10
19813;DHT22;10066;48.108;11.448;2022-08-05T12:09:17;29.80;70.90
19813;DHT22;10066;48.108;11.448;2022-08-05T12:11:47;29.90;70.00
19813;DHT22;10066;48.108;11.448;2022-08-05T12:14:14;30.10;69.70
19813;DHT22;10066;48.108;11.448;2022-08-05T12:16:42;30.20;69.60
19813;DHT22;10066;48.108;11.448;2022-08-05T12:19:14;30.30;68.80
19813;DHT22;10066;48.108;11.448;2022-08-05T12:21:44;30.50;67.90
19813;DHT22;10066;48.108;11.448;2022-08-05T12:24:13;30.60;67.40
19813;DHT22;10066;48.108;11.448;2022-08-05T12:26:42;30.60;66.60
19813;DHT22;10066;48.108;11.448;2022-08-05T12:29:11;30.70;66.60
19813;DHT22;10066;48.108;11.448;2022-08-05T12:31:39;30.70;66.60
19813;DHT22;10066;48.108;11.448;2022-08-05T12:34:07;30.70;65.60
19813;DHT22;10066;48.108;11.448;2022-08-05T12:36:37;30.70;66.00
19813;DHT22;10066;48.108;11.448;2022-08-05T12:39:05;30.90;66.90
19813;DHT22;10066;48.108;11.448;2022-08-05T12:41:33;31.00;67.20
19813;DHT22;10066;48.108;11.448;2022-08-05T12:44:03;31.00;66.00
19813;DHT22;10066;48.108;11.448;2022-08-05T12:46:31;31.00;65.20
19813;DHT22;10066;48.108;11.448;2022-08-05T12:49:00;31.10;65.30
19813;DHT22;10066;48.108;11.448;2022-08-05T12:51:28;31.20;65.90
19813;DHT22;10066;48.108;11.448;2022-08-05T12:54:00;31.40;65.40
19813;DHT22;10066;48.108;11.448;2022-08-05T12:56:28;31.40;64.80
19813;DHT22;10066;48.108;11.448;2022-08-05T12:59:12;31.60;64.30
19813;DHT22;10066;48.108;11.448;2022-08-05T13:01:40;31.60;63.50
19813;DHT22;10066;48.108;11.448;2022-08-05T13:04:08;31.70;64.70
19813;DHT22;10066;48.108;11.448;2022-08-05T13:06:40;31.70;63.80
19813;DHT22;10066;48.108;11.448;2022-08-05T13:09:11;31.80;63.90
19813;DHT22;10066;48.108;11.448;2022-08-05T13:11:40;31.90;63.60
19813;DHT22;10066;48.108;11.448;2022-08-05T13:14:18;32.00;63.20
19813;DHT22;10066;48.108;11.448;2022-08-05T13:16:46;32.00;62.80
19813;DHT22;10066;48.108;11.448;2022-08-05T13:19:13;32.00;62.10
19813;DHT22;10066;48.108;11.448;2022-08-05T13:21:40;32.00;62.40
19813;DHT22;10066;48.108;11.448;2022-08-05T13:24:09;32.00;62.30
19813;DHT22;10066;48.108;11.448;2022-08-05T13:26:36;31.90;62.20
19813;DHT22;10066;48.108;11.448;2022-08-05T13:29:03;31.80;62.30
19813;DHT22;10066;48.108;11.448;2022-08-05T13:31:30;31.80;62.60
19813;DHT22;10066;48.108;11.448;2022-08-05T13:33:57;31.60;61.60
19813;DHT22;10066;48.108;11.448;2022-08-05T13:36:25;31.70;62.20
19813;DHT22;10066;48.108;11.448;2022-08-05T13:38:52;31.60;62.00
19813;DHT22;10066;48.108;11.448;2022-08-05T13:41:21;31.70;61.90
19813;DHT22;10066;48.108;11.448;2022-08-05T13:43:48;31.60;61.20
19813;DHT22;10066;48.108;11.448;2022-08-05T13:46:15;31.60;62.20
19813;DHT22;10066;48.108;11.448;2022-08-05T13:48:42;31.70;61.50
19813;DHT22;10066;48.108;11.448;2022-08-05T13:51:10;31.70;62.00
19813;DHT22;10066;48.108;11.448;2022-08-05T13:53:38;31.80;62.70
19813;DHT22;10066;48.108;11.448;2022-08-05T13:56:05;31.90;62.00
19813;DHT22;10066;48.108;11.448;2022-08-05T13:58:33;31.90;61.80
19813;DHT22;10066;48.108;11.448;2022-08-05T14:01:00;31.90;62.20
19813;DHT22;10066;48.108;11.448;2022-08-05T14:03:27;31.90;62.00
19813;DHT22;10066;48.108;11.448;2022-08-05T14:05:54;31.90;62.00
19813;DHT22;10066;48.108;11.448;2022-08-05T14:08:20;32.00;61.90
19813;DHT22;10066;48.108;11.448;2022-08-05T14:10:47;31.90;61.60
19813;DHT22;10066;48.108;11.448;2022-08-05T14:13:14;31.90;61.60
19813;DHT22;10066;48.108;11.448;2022-08-05T14:15:43;31.90;61.80
19813;DHT22;10066;48.108;11.448;2022-08-05T14:18:10;31.90;61.80
19813;DHT22;10066;48.108;11.448;2022-08-05T14:20:36;31.80;61.60
19813;DHT22;10066;48.108;11.448;2022-08-05T14:23:03;31.80;61.40
19813;DHT22;10066;48.108;11.448;2022-08-05T14:25:30;31.80;61.10
19813;DHT22;10066;48.108;11.448;2022-08-05T14:27:57;31.80;61.50
19813;DHT22;10066;48.108;11.448;2022-08-05T14:30:25;31.70;62.40
19813;DHT22;10066;48.108;11.448;2022-08-05T14:32:53;31.70;61.90
19813;DHT22;10066;48.108;11.448;2022-08-05T14:35:20;31.80;61.30
19813;DHT22;10066;48.108;11.448;2022-08-05T14:37:47;31.80;60.90
19813;DHT22;10066;48.108;11.448;2022-08-05T14:40:14;31.80;60.80
19813;DHT22;10066;48.108;11.448;2022-08-05T14:42:41;31.90;61.10
19813;DHT22;10066;48.108;11.448;2022-08-05T14:45:09;31.90;60.70
19813;DHT22;10066;48.108;11.448;2022-08-05T14:47:36;31.90;60.40
19813;DHT22;10066;48.108;11.448;2022-08-05T14:50:05;31.90;60.90
19813;DHT22;10066;48.108;11.448;2022-08-05T14:52:33;31.90;60.80
19813;DHT22;10066;48.108;11.448;2022-08-05T14:54:59;31.80;60.40
19813;DHT22;10066;48.108;11.448;2022-08-05T14:57:27;31.80;61.00
19813;DHT22;10066;48.108;11.448;2022-08-05T14:59:54;31.80;61.30
19813;DHT22;10066;48.108;11.448;2022-08-05T15:02:21;31.70;61.30
19813;DHT22;10066;48.108;11.448;2022-08-05T15:04:48;31.60;61.40
19813;DHT22;10066;48.108;11.448;2022-08-05T15:07:16;31.60;60.10
19813;DHT22;10066;48.108;11.448;2022-08-05T15:09:43;31.40;60.10
19813;DHT22;10066;48.108;11.448;2022-08-05T15:12:10;31.40;59.40
19813;DHT22;10066;48.108;11.448;2022-08-05T15:14:38;31.30;59.50
19813;DHT22;10066;48.108;11.448;2022-08-05T15:17:05;31.20;59.40
19813;DHT22;10066;48.108;11.448;2022-08-05T15:19:33;31.20;59.40
19813;DHT22;10066;48.108;11.448;2022-08-05T15:22:00;31.20;59.30
19813;DHT22;10066;48.108;11.448;2022-08-05T15:24:28;31.20;59.50
19813;DHT22;10066;48.108;11.448;2022-08-05T15:26:55;31.10;59.40
19813;DHT22;10066;48.108;11.448;2022-08-05T15:29:22;31.10;59.10
19813;DHT22;10066;48.108;11.448;2022-08-05T15:31:49;31.10;59.60
19813;DHT22;10066;48.108;11.448;2022-08-05T15:34:16;31.10;60.10